createdAt,value
2023-08-07T00:02:27.249Z,4.25
2023-08-07T00:04:54.412Z,6.10
2023-08-07T00:07:21.596Z,1.92
2023-08-07T00:09:48.597Z,3.70
2023-08-07T00:12:15.484Z,4.65
2023-08-07T00:14:42.517Z,4.10
2023-08-07T00:17:09.703Z,5.00
2023-08-07T00:19:36.671Z,4.03
2023-08-07T00:22:03.679Z,3.25
2023-08-07T00:24:30.608Z,4.03
2023-08-07T00:26:57.920Z,3.45
2023-08-07T00:29:25.120Z,3.58
2023-08-07T00:31:52.063Z,4.25
2023-08-07T00:34:19.220Z,1.20
2023-08-07T00:36:46.301Z,2.47
2023-08-07T00:39:13.364Z,1.10
2023-08-07T00:41:40.284Z,1.65
2023-08-07T00:44:07.690Z,1.65
2023-08-07T00:46:34.904Z,3.97
2023-08-07T00:49:02.013Z,1.70
2023-08-07T00:51:28.961Z,2.72
2023-08-07T00:53:56.003Z,4.45
2023-08-07T00:56:25.710Z,2.35
2023-08-07T00:58:53.117Z,2.85
2023-08-07T01:01:20.469Z,4.45
2023-08-07T01:03:47.437Z,2.92
2023-08-07T01:06:14.370Z,4.00
2023-08-07T01:08:41.445Z,0.88
2023-08-07T01:11:20.243Z,1.52
2023-08-07T01:14:18.888Z,1.48
2023-08-07T01:17:09.342Z,1.30
2023-08-07T01:19:37.663Z,1.50
2023-08-07T01:22:17.992Z,2.13
2023-08-07T01:24:49.198Z,0.95
2023-08-07T01:27:19.171Z,2.05
2023-08-07T01:30:20.446Z,1.45
2023-08-07T01:33:05.270Z,1.70
2023-08-07T01:35:45.333Z,1.38
2023-08-07T01:38:14.125Z,0.77
2023-08-07T01:40:44.042Z,1.00
2023-08-07T01:43:11.129Z,2.72
2023-08-07T01:45:38.538Z,0.80
2023-08-07T01:48:05.701Z,1.48
2023-08-07T01:50:32.999Z,1.35
2023-08-07T01:52:59.974Z,1.17
2023-08-07T01:55:26.812Z,2.20
2023-08-07T01:57:54.213Z,1.35
2023-08-07T02:00:21.267Z,0.85
2023-08-07T02:02:48.448Z,2.38
2023-08-07T02:05:16.279Z,2.60
2023-08-07T02:07:44.315Z,3.47
2023-08-07T02:10:11.250Z,2.70
2023-08-07T02:12:38.595Z,1.50
2023-08-07T02:15:06.315Z,1.85
2023-08-07T02:17:34.078Z,2.03
2023-08-07T02:20:01.180Z,1.42
2023-08-07T02:22:28.078Z,4.25
2023-08-07T02:24:54.949Z,1.40
2023-08-07T02:27:21.817Z,2.60
2023-08-07T02:29:48.721Z,2.70
2023-08-07T02:32:15.722Z,2.05
2023-08-07T02:34:42.605Z,2.17
2023-08-07T02:37:09.543Z,2.17
2023-08-07T02:39:36.432Z,1.77
2023-08-07T02:42:04.251Z,2.25
2023-08-07T02:44:31.192Z,0.80
2023-08-07T02:46:58.315Z,1.75
2023-08-07T02:49:25.389Z,1.83
2023-08-07T02:51:52.297Z,3.30
2023-08-07T02:54:19.224Z,1.58
2023-08-07T02:56:46.187Z,1.15
2023-08-07T02:59:13.103Z,3.80
2023-08-07T03:01:40.052Z,1.60
2023-08-07T03:04:06.962Z,1.17
2023-08-07T03:06:33.858Z,1.20
2023-08-07T03:09:00.834Z,1.13
2023-08-07T03:11:27.813Z,0.95
2023-08-07T03:13:54.712Z,1.00
2023-08-07T03:16:21.673Z,1.00
2023-08-07T03:18:48.945Z,3.88
2023-08-07T03:21:16.013Z,2.25
2023-08-07T03:23:42.926Z,2.25
2023-08-07T03:28:43.428Z,1.67
2023-08-07T03:31:10.320Z,1.55
2023-08-07T03:33:37.396Z,1.90
2023-08-07T03:36:04.457Z,2.70
2023-08-07T03:38:31.357Z,4.13
2023-08-07T03:40:58.269Z,3.70
2023-08-07T03:43:25.146Z,1.27
2023-08-07T03:46:02.503Z,2.40
2023-08-07T03:48:30.577Z,1.77
2023-08-07T03:51:11.844Z,3.80
2023-08-07T03:53:39.589Z,1.23
2023-08-07T03:56:06.503Z,2.15
2023-08-07T03:58:33.436Z,2.55
2023-08-07T04:01:00.364Z,1.88
2023-08-07T04:03:27.345Z,0.85
2023-08-07T04:05:55.975Z,1.77
2023-08-07T04:08:23.952Z,1.88
2023-08-07T04:11:06.395Z,1.75
2023-08-07T04:13:33.460Z,3.28
2023-08-07T04:16:02.827Z,1.75
2023-08-07T04:18:29.815Z,0.77
2023-08-07T04:20:58.084Z,1.80
2023-08-07T04:23:26.294Z,0.65
2023-08-07T04:25:54.724Z,0.98
2023-08-07T04:28:22.626Z,0.60
2023-08-07T04:30:53.415Z,1.45
2023-08-07T04:33:22.119Z,0.77
2023-08-07T04:35:49.703Z,2.30
2023-08-07T04:38:18.172Z,1.05
2023-08-07T04:40:47.318Z,2.03
2023-08-07T04:43:15.656Z,1.00
2023-08-07T04:45:43.295Z,1.42
2023-08-07T04:48:10.350Z,1.90
2023-08-07T04:50:37.376Z,3.08
2023-08-07T04:53:06.027Z,1.80
2023-08-07T04:55:33.968Z,2.78
2023-08-07T04:58:00.932Z,4.53
2023-08-07T05:00:29.570Z,3.28
2023-08-07T05:02:56.685Z,5.10
2023-08-07T05:05:24.609Z,2.95
2023-08-07T05:07:51.801Z,3.10
2023-08-07T05:10:18.789Z,5.53
2023-08-07T05:12:45.692Z,4.30
2023-08-07T05:15:12.621Z,4.65
2023-08-07T05:17:39.656Z,6.22
2023-08-07T05:20:07.658Z,2.65
2023-08-07T05:22:34.684Z,6.35
2023-08-07T05:25:01.668Z,9.20
2023-08-07T05:27:29.659Z,5.40
2023-08-07T05:29:56.612Z,4.20
2023-08-07T05:32:23.531Z,4.10
2023-08-07T05:34:51.664Z,5.63
2023-08-07T05:37:18.578Z,4.38
2023-08-07T05:39:45.925Z,4.47
2023-08-07T05:42:13.524Z,4.43
2023-08-07T05:44:40.442Z,2.72
2023-08-07T05:47:08.284Z,3.70
2023-08-07T05:49:35.412Z,5.18
2023-08-07T05:52:02.350Z,2.40
2023-08-07T05:54:29.244Z,3.50
2023-08-07T05:56:56.155Z,2.08
2023-08-07T05:59:23.122Z,2.42
2023-08-07T06:01:51.532Z,2.33
2023-08-07T06:04:19.014Z,4.43
2023-08-07T06:06:47.067Z,3.50
2023-08-07T06:09:16.402Z,3.72
2023-08-07T06:11:43.779Z,4.65
2023-08-07T06:14:10.812Z,3.72
2023-08-07T06:16:37.860Z,2.40
2023-08-07T06:19:10.666Z,4.65
2023-08-07T06:21:44.426Z,3.47
2023-08-07T06:24:11.370Z,3.50
2023-08-07T06:26:38.256Z,3.90
2023-08-07T06:29:05.328Z,4.45
2023-08-07T06:31:32.262Z,3.83
2023-08-07T06:34:01.093Z,4.75
2023-08-07T06:36:28.055Z,8.55
2023-08-07T06:38:55.050Z,5.28
2023-08-07T06:41:21.947Z,4.53
2023-08-07T06:43:49.006Z,7.80
2023-08-07T06:46:17.042Z,6.50
2023-08-07T06:48:43.925Z,5.25
2023-08-07T06:51:10.912Z,6.00
2023-08-07T06:53:37.857Z,8.63
2023-08-07T06:56:04.941Z,6.03
2023-08-07T06:58:33.263Z,8.18
2023-08-07T07:01:00.343Z,8.25
2023-08-07T07:03:27.396Z,8.80
2023-08-07T07:05:54.587Z,9.98
2023-08-07T07:08:24.269Z,10.57
2023-08-07T07:10:51.327Z,6.53
2023-08-07T07:13:18.310Z,6.82
2023-08-07T07:15:45.272Z,6.18
2023-08-07T07:18:12.273Z,6.63
2023-08-07T07:20:39.153Z,5.32
2023-08-07T07:23:06.714Z,6.00
2023-08-07T07:25:33.832Z,7.07
2023-08-07T07:28:00.762Z,6.32
2023-08-07T07:30:27.769Z,4.60
2023-08-07T07:32:54.749Z,7.00
2023-08-07T07:35:21.729Z,5.68
2023-08-07T07:37:48.721Z,3.58
2023-08-07T07:40:15.842Z,5.35
2023-08-07T07:42:42.739Z,3.20
2023-08-07T07:45:09.883Z,5.00
2023-08-07T07:47:37.088Z,4.05
2023-08-07T07:50:10.188Z,4.07
2023-08-07T07:52:37.112Z,3.65
2023-08-07T07:55:04.513Z,2.45
2023-08-07T07:57:31.489Z,3.03
2023-08-07T08:00:00.706Z,2.38
2023-08-07T08:02:27.893Z,3.05
2023-08-07T08:04:54.888Z,3.63
2023-08-07T08:07:22.441Z,3.00
2023-08-07T08:09:49.323Z,2.80
2023-08-07T08:12:16.255Z,2.67
2023-08-07T08:14:55.381Z,2.92
2023-08-07T08:17:25.040Z,2.30
2023-08-07T08:19:51.996Z,3.03
2023-08-07T08:22:20.119Z,2.50
2023-08-07T08:24:48.738Z,3.38
2023-08-07T08:27:15.918Z,1.92
2023-08-07T08:29:42.977Z,1.90
2023-08-07T08:32:10.437Z,2.58
2023-08-07T08:34:37.377Z,2.92
2023-08-07T08:37:06.996Z,2.15
2023-08-07T08:39:33.975Z,1.88
2023-08-07T08:42:01.271Z,2.38
2023-08-07T08:44:32.746Z,1.95
2023-08-07T08:47:01.720Z,1.75
2023-08-07T08:49:42.609Z,1.77
2023-08-07T08:52:10.298Z,1.20
2023-08-07T08:54:38.341Z,2.50
2023-08-07T08:57:07.365Z,2.53
2023-08-07T08:59:35.236Z,2.38
2023-08-07T09:02:02.840Z,1.33
2023-08-07T09:04:29.894Z,2.63
2023-08-07T09:06:57.300Z,1.60
2023-08-07T09:09:25.607Z,1.90
2023-08-07T09:11:53.434Z,2.80
2023-08-07T09:14:31.625Z,2.22
2023-08-07T09:17:02.103Z,2.78
2023-08-07T09:19:29.228Z,2.90
2023-08-07T09:21:56.462Z,3.45
2023-08-07T09:24:23.709Z,2.33
2023-08-07T09:26:54.407Z,3.03
2023-08-07T09:29:23.422Z,1.90
2023-08-07T09:31:50.394Z,2.75
2023-08-07T09:34:21.745Z,2.92
2023-08-07T09:36:48.774Z,2.58
2023-08-07T09:39:15.868Z,2.92
2023-08-07T09:41:42.850Z,3.20
2023-08-07T09:44:12.191Z,2.63
2023-08-07T09:46:46.233Z,3.05
2023-08-07T09:49:13.521Z,5.32
2023-08-07T09:51:48.481Z,3.15
2023-08-07T09:54:15.532Z,5.90
2023-08-07T09:56:42.803Z,5.22
2023-08-07T09:59:09.929Z,6.65
2023-08-07T10:01:41.179Z,6.68
2023-08-07T10:04:08.994Z,7.53
2023-08-07T10:06:36.406Z,5.82
2023-08-07T10:09:05.007Z,7.28
2023-08-07T10:11:32.774Z,7.00
2023-08-07T10:14:01.036Z,7.18
2023-08-07T10:16:31.135Z,7.03
2023-08-07T10:18:58.149Z,7.93
2023-08-07T10:21:26.318Z,5.82
2023-08-07T10:23:58.134Z,10.73
2023-08-07T10:26:26.499Z,7.43
2023-08-07T10:28:54.856Z,7.10
2023-08-07T10:31:24.771Z,7.47
2023-08-07T10:33:52.494Z,7.00
2023-08-07T10:36:21.242Z,9.90
2023-08-07T10:38:54.449Z,9.18
2023-08-07T10:41:21.352Z,9.88
2023-08-07T10:43:49.189Z,12.38
2023-08-07T10:46:24.385Z,8.75
2023-08-07T10:49:00.978Z,8.75
2023-08-07T10:51:34.677Z,7.80
2023-08-07T10:54:03.099Z,11.48
2023-08-07T10:56:42.136Z,8.13
2023-08-07T10:59:12.088Z,12.32
2023-08-07T11:01:39.069Z,9.43
2023-08-07T11:04:16.022Z,8.00
2023-08-07T11:06:47.869Z,10.32
2023-08-07T11:09:14.886Z,7.45
2023-08-07T11:11:48.336Z,9.15
2023-08-07T11:14:17.713Z,7.60
2023-08-07T11:16:47.820Z,5.82
2023-08-07T11:19:18.153Z,6.95
2023-08-07T11:21:45.675Z,10.15
2023-08-07T11:24:19.925Z,7.82
2023-08-07T11:26:47.024Z,6.95
2023-08-07T11:29:20.329Z,6.70
2023-08-07T11:31:47.801Z,9.68
2023-08-07T11:34:14.876Z,8.73
2023-08-07T11:36:46.048Z,9.02
2023-08-07T11:39:14.731Z,10.20
2023-08-07T11:41:41.707Z,9.13
2023-08-07T11:44:12.169Z,8.77
2023-08-07T11:46:39.180Z,7.15
2023-08-07T11:49:06.652Z,9.77
2023-08-07T11:51:34.203Z,8.25
2023-08-07T11:54:01.877Z,8.55
2023-08-07T11:56:29.299Z,14.52
2023-08-07T11:58:58.336Z,7.30
2023-08-07T12:01:27.852Z,11.00
2023-08-07T12:03:55.995Z,9.45
2023-08-07T12:06:27.028Z,9.32
2023-08-07T12:08:58.501Z,11.25
2023-08-07T12:11:25.828Z,10.15
2023-08-07T12:13:53.211Z,9.45
2023-08-07T12:16:20.588Z,8.13
2023-08-07T12:18:49.615Z,6.13
2023-08-07T12:21:20.639Z,6.85
2023-08-07T12:23:49.140Z,8.57
2023-08-07T12:26:17.267Z,5.15
2023-08-07T12:28:44.735Z,8.30
2023-08-07T12:31:11.936Z,9.80
2023-08-07T12:33:39.250Z,11.10
2023-08-07T12:36:20.349Z,6.40
2023-08-07T12:38:48.654Z,8.18
2023-08-07T12:43:46.191Z,9.95
2023-08-07T12:48:42.940Z,7.30
2023-08-07T12:51:09.908Z,9.73
2023-08-07T12:53:36.862Z,10.43
2023-08-07T12:56:06.064Z,9.55
2023-08-07T12:58:33.069Z,8.43
2023-08-07T13:01:00.172Z,7.63
2023-08-07T13:03:27.124Z,4.13
2023-08-07T13:05:54.184Z,4.03
2023-08-07T13:08:21.209Z,6.38
2023-08-07T13:10:50.478Z,5.22
2023-08-07T13:13:17.637Z,5.05
2023-08-07T13:15:44.619Z,5.35
2023-08-07T13:18:12.777Z,5.88
2023-08-07T13:20:39.834Z,5.57
2023-08-07T13:23:07.886Z,5.00
2023-08-07T13:25:35.275Z,7.30
2023-08-07T13:28:05.786Z,5.43
2023-08-07T13:30:36.777Z,3.40
2023-08-07T13:33:04.668Z,3.58
2023-08-07T13:35:32.335Z,5.13
2023-08-07T13:37:59.421Z,3.15
2023-08-07T13:40:26.520Z,6.50
2023-08-07T13:42:54.457Z,4.28
2023-08-07T13:45:21.786Z,4.80
2023-08-07T13:47:48.927Z,7.22
2023-08-07T13:50:16.517Z,3.03
2023-08-07T13:52:43.505Z,2.42
2023-08-07T13:55:10.823Z,2.85
2023-08-07T13:57:38.038Z,4.82
2023-08-07T14:00:06.221Z,4.90
2023-08-07T14:02:35.916Z,4.95
2023-08-07T14:05:03.262Z,5.20
2023-08-07T14:07:30.471Z,5.00
2023-08-07T14:09:57.699Z,4.18
2023-08-07T14:12:24.749Z,6.78
2023-08-07T14:14:51.775Z,4.30
2023-08-07T14:17:18.703Z,5.18
2023-08-07T14:19:45.637Z,6.43
2023-08-07T14:22:12.617Z,4.18
2023-08-07T14:24:39.650Z,4.00
2023-08-07T14:27:06.712Z,4.18
2023-08-07T14:29:33.760Z,7.43
2023-08-07T14:32:00.777Z,3.65
2023-08-07T14:34:27.662Z,3.55
2023-08-07T14:36:55.465Z,4.28
2023-08-07T14:39:24.309Z,3.20
2023-08-07T14:41:53.296Z,3.13
2023-08-07T14:44:20.303Z,5.93
2023-08-07T14:46:47.339Z,5.07
2023-08-07T14:49:14.295Z,7.60
2023-08-07T14:51:41.368Z,3.53
2023-08-07T14:54:08.339Z,5.55
2023-08-07T14:56:35.318Z,4.57
2023-08-07T14:59:02.289Z,3.78
2023-08-07T15:01:29.268Z,4.95
2023-08-07T15:03:56.444Z,3.50
2023-08-07T15:06:23.532Z,4.95
2023-08-07T15:08:50.571Z,4.47
2023-08-07T15:11:18.158Z,3.28
2023-08-07T15:13:45.307Z,3.33
2023-08-07T15:16:12.340Z,4.93
2023-08-07T15:18:41.371Z,3.50
2023-08-07T15:21:09.128Z,2.70
2023-08-07T15:23:36.120Z,2.80
2023-08-07T15:26:03.154Z,4.22
2023-08-07T15:28:30.187Z,5.72
2023-08-07T15:30:57.154Z,3.28
2023-08-07T15:33:25.042Z,3.13
2023-08-07T15:35:55.776Z,5.15
2023-08-07T15:38:23.407Z,3.70
2023-08-07T15:40:50.434Z,4.63
2023-08-07T15:43:17.555Z,1.90
2023-08-07T15:45:53.566Z,3.72
2023-08-07T15:48:21.330Z,3.53
2023-08-07T15:50:48.971Z,2.80
2023-08-07T15:53:16.133Z,3.80
2023-08-07T15:55:43.189Z,3.53
2023-08-07T15:58:10.196Z,4.22
2023-08-07T16:00:37.218Z,1.98
2023-08-07T16:03:08.938Z,2.35
2023-08-07T16:05:38.976Z,4.28
2023-08-07T16:08:08.769Z,5.72
2023-08-07T16:10:37.518Z,5.03
2023-08-07T16:13:05.009Z,3.40
2023-08-07T16:15:31.948Z,5.80
2023-08-07T16:17:59.011Z,3.72
2023-08-07T16:20:25.992Z,5.47
2023-08-07T16:22:52.960Z,4.95
2023-08-07T16:25:20.102Z,4.30
2023-08-07T16:27:49.297Z,6.20
2023-08-07T16:30:16.224Z,3.83
2023-08-07T16:32:43.521Z,5.22
2023-08-07T16:35:10.879Z,4.25
2023-08-07T16:37:37.971Z,5.25
2023-08-07T16:40:06.415Z,9.18
2023-08-07T16:42:33.754Z,3.85
2023-08-07T16:45:00.780Z,5.88
2023-08-07T16:47:27.820Z,3.80
2023-08-07T16:49:54.755Z,3.47
2023-08-07T16:52:21.990Z,5.15
2023-08-07T16:54:50.694Z,4.63
2023-08-07T16:57:18.376Z,3.00
2023-08-07T16:59:45.557Z,5.22
2023-08-07T17:02:14.373Z,4.20
2023-08-07T17:04:43.323Z,6.15
2023-08-07T17:07:10.790Z,4.00
2023-08-07T17:09:38.051Z,5.82
2023-08-07T17:12:05.693Z,3.15
2023-08-07T17:14:32.626Z,5.47
2023-08-07T17:16:59.922Z,6.05
2023-08-07T17:19:27.145Z,2.90
2023-08-07T17:21:54.211Z,3.17
2023-08-07T17:24:21.364Z,3.47
2023-08-07T17:26:48.391Z,3.42
2023-08-07T17:29:15.356Z,3.15
2023-08-07T17:31:42.410Z,7.32
2023-08-07T17:34:09.415Z,3.47
2023-08-07T17:36:36.422Z,3.53
2023-08-07T17:39:03.921Z,6.07
2023-08-07T17:41:30.848Z,7.25
2023-08-07T17:43:57.729Z,6.10
2023-08-07T17:46:25.085Z,3.83
2023-08-07T17:48:52.083Z,4.65
2023-08-07T17:51:20.961Z,6.22
2023-08-07T17:53:48.087Z,5.07
2023-08-07T17:56:15.076Z,5.72
2023-08-07T17:58:42.096Z,6.03
2023-08-07T18:01:09.080Z,4.78
2023-08-07T18:03:36.207Z,4.13
2023-08-07T18:06:03.344Z,3.55
2023-08-07T18:08:30.659Z,3.88
2023-08-07T18:10:57.692Z,7.20
2023-08-07T18:13:24.749Z,5.30
2023-08-07T18:15:51.696Z,7.65
2023-08-07T18:18:18.618Z,3.33
2023-08-07T18:20:45.566Z,5.22
2023-08-07T18:23:12.469Z,4.15
2023-08-07T18:25:39.471Z,4.80
2023-08-07T18:28:06.973Z,3.88
2023-08-07T18:30:34.041Z,4.45
2023-08-07T18:33:01.063Z,5.18
2023-08-07T18:35:28.223Z,5.32
2023-08-07T18:37:55.166Z,5.80
2023-08-07T18:40:22.170Z,4.05
2023-08-07T18:42:49.160Z,5.47
2023-08-07T18:45:16.394Z,4.45
2023-08-07T18:47:43.540Z,2.88
2023-08-07T18:50:10.934Z,3.72
2023-08-07T18:52:37.851Z,4.70
2023-08-07T18:55:05.416Z,6.60
2023-08-07T18:57:32.317Z,8.70
2023-08-07T19:00:00.335Z,4.28
2023-08-07T19:02:27.923Z,5.00
2023-08-07T19:04:54.939Z,4.97
2023-08-07T19:07:22.080Z,8.85
2023-08-07T19:09:49.087Z,6.20
2023-08-07T19:12:16.026Z,6.47
2023-08-07T19:14:43.102Z,7.82
2023-08-07T19:17:10.250Z,4.60
2023-08-07T19:19:37.275Z,5.78
2023-08-07T19:22:04.958Z,4.07
2023-08-07T19:24:32.095Z,4.70
2023-08-07T19:26:59.199Z,10.55
2023-08-07T19:29:26.567Z,4.15
2023-08-07T19:31:53.580Z,5.53
2023-08-07T19:34:21.358Z,4.78
2023-08-07T19:36:51.236Z,3.58
2023-08-07T19:39:18.669Z,4.70
2023-08-07T19:41:45.701Z,4.95
2023-08-07T19:44:12.572Z,6.90
2023-08-07T19:46:39.620Z,4.72
2023-08-07T19:49:06.556Z,7.25
2023-08-07T19:51:33.704Z,5.80
2023-08-07T19:54:02.487Z,4.13
2023-08-07T19:56:32.780Z,6.45
2023-08-07T19:59:04.774Z,7.07
2023-08-07T20:01:32.750Z,4.68
2023-08-07T20:04:00.014Z,5.38
2023-08-07T20:06:27.317Z,3.55
2023-08-07T20:08:54.314Z,6.00
2023-08-07T20:11:21.272Z,7.70
2023-08-07T20:13:48.189Z,3.65
2023-08-07T20:16:15.211Z,8.05
2023-08-07T20:18:42.107Z,4.28
2023-08-07T20:21:09.055Z,5.22
2023-08-07T20:23:35.977Z,3.78
2023-08-07T20:26:03.583Z,8.75
2023-08-07T20:28:30.546Z,5.95
2023-08-07T20:30:57.506Z,8.07
2023-08-07T20:33:24.602Z,4.57
2023-08-07T20:35:51.574Z,6.18
2023-08-07T20:38:18.630Z,3.80
2023-08-07T20:40:45.524Z,8.77
2023-08-07T20:43:12.528Z,7.20
2023-08-07T20:45:39.517Z,4.07
2023-08-07T20:48:06.826Z,6.32
2023-08-07T20:50:34.001Z,7.80
2023-08-07T20:53:00.987Z,7.88
2023-08-07T20:55:28.085Z,4.38
2023-08-07T20:57:55.047Z,4.75
2023-08-07T21:00:22.081Z,8.05
2023-08-07T21:02:50.021Z,8.10
2023-08-07T21:05:17.022Z,6.47
2023-08-07T21:07:43.959Z,6.43
2023-08-07T21:10:12.483Z,5.63
2023-08-07T21:12:39.429Z,6.30
2023-08-07T21:15:07.210Z,5.88
2023-08-07T21:17:34.236Z,6.63
2023-08-07T21:20:01.300Z,6.32
2023-08-07T21:22:28.528Z,4.60
2023-08-07T21:24:55.497Z,5.97
2023-08-07T21:27:24.037Z,5.82
2023-08-07T21:29:51.258Z,3.88
2023-08-07T21:32:18.254Z,8.90
2023-08-07T21:34:45.226Z,5.88
2023-08-07T21:37:13.951Z,8.90
2023-08-07T21:39:41.095Z,6.95
2023-08-07T21:42:08.547Z,10.07
2023-08-07T21:44:35.452Z,9.40
2023-08-07T21:47:02.672Z,10.82
2023-08-07T21:49:29.747Z,7.65
2023-08-07T21:51:57.015Z,11.75
2023-08-07T21:54:24.312Z,6.35
2023-08-07T21:56:51.262Z,9.38
2023-08-07T21:59:18.397Z,7.65
2023-08-07T22:01:45.458Z,6.13
2023-08-07T22:04:12.400Z,6.15
2023-08-07T22:06:39.414Z,6.70
2023-08-07T22:09:06.396Z,6.00
2023-08-07T22:11:33.393Z,9.52
2023-08-07T22:14:03.033Z,7.00
2023-08-07T22:16:30.002Z,4.03
2023-08-07T22:18:56.976Z,7.68
2023-08-07T22:21:24.045Z,4.93
2023-08-07T22:23:51.114Z,4.50
2023-08-07T22:26:18.111Z,5.60
2023-08-07T22:28:45.176Z,5.80
2023-08-07T22:31:12.164Z,6.72
2023-08-07T22:33:39.254Z,5.45
2023-08-07T22:36:12.233Z,4.72
2023-08-07T22:38:40.504Z,3.05
2023-08-07T22:41:08.146Z,6.18
2023-08-07T22:43:35.132Z,6.35
2023-08-07T22:46:02.138Z,5.20
2023-08-07T22:48:29.213Z,4.03
2023-08-07T22:50:56.165Z,5.25
2023-08-07T22:53:23.459Z,3.63
2023-08-07T22:55:50.408Z,6.22
2023-08-07T22:58:17.424Z,7.07
2023-08-07T23:00:44.468Z,6.88
2023-08-07T23:03:11.699Z,5.05
2023-08-07T23:05:38.798Z,7.47
2023-08-07T23:08:06.473Z,4.20
2023-08-07T23:10:33.445Z,3.53
2023-08-07T23:13:00.626Z,4.25
2023-08-07T23:15:27.689Z,4.03
2023-08-07T23:17:54.685Z,4.53
2023-08-07T23:20:21.729Z,4.65
2023-08-07T23:22:48.650Z,4.78
2023-08-07T23:25:16.376Z,5.90
2023-08-07T23:27:43.831Z,3.20
2023-08-07T23:30:11.371Z,3.97
2023-08-07T23:32:38.390Z,5.65
2023-08-07T23:35:05.704Z,3.25
2023-08-07T23:37:32.709Z,6.10
2023-08-07T23:39:59.796Z,5.82
2023-08-07T23:42:26.705Z,4.03
2023-08-07T23:44:53.608Z,3.22
2023-08-07T23:47:20.541Z,4.88
2023-08-07T23:49:47.669Z,5.25
2023-08-07T23:52:14.583Z,8.43
2023-08-07T23:54:41.468Z,5.43
2023-08-07T23:57:08.470Z,3.20
2023-08-07T23:59:35.497Z,5.65
